Time,TemperatureF,DewpointF,PressureIn,WindDirection,WindDirectionDegrees,WindSpeedMPH,WindSpeedGustMPH,Humidity,HourlyPrecipIn,Conditions,Clouds,dailyrainin,SoftwareType,DateUTC
2013-06-26 00:22:00,61.0,55.0,29.75,ESE,112,0.0,0.0,81,0.00,,,0.00,,2013-06-26 04:22:00,
2013-06-26 00:33:00,61.0,55.0,29.75,ESE,112,0.0,0.0,81,0.00,,,0.00,,2013-06-26 04:33:00,
2013-06-26 00:43:00,61.0,55.0,29.75,ESE,117,0.0,0.0,82,0.00,,,0.00,,2013-06-26 04:43:00,
2013-06-26 00:53:00,61.0,55.0,29.75,ESE,117,0.0,0.0,82,0.00,,,0.00,,2013-06-26 04:53:00,
2013-06-26 01:02:00,61.0,55.0,29.75,ESE,117,0.0,0.0,82,0.00,,,0.00,,2013-06-26 05:02:00,
2013-06-26 01:11:00,61.0,55.0,29.75,ESE,117,0.0,0.0,82,0.00,,,0.00,,2013-06-26 05:11:00,
2013-06-26 01:22:00,61.0,55.0,29.75,ESE,117,0.0,0.0,82,0.00,,,0.00,,2013-06-26 05:22:00,
2013-06-26 01:52:00,60.0,55.0,29.73,SE,135,0.0,0.0,84,0.00,,,0.00,,2013-06-26 05:52:00,
2013-06-26 02:02:00,60.0,55.0,29.73,SE,135,0.0,0.0,84,0.00,,,0.00,,2013-06-26 06:02:00,
2013-06-26 02:11:00,60.0,55.0,29.73,SE,135,0.0,0.0,84,0.00,,,0.00,,2013-06-26 06:11:00,
2013-06-26 02:22:00,60.0,55.0,29.74,SE,135,0.0,0.0,84,0.00,,,0.00,,2013-06-26 06:22:00,
2013-06-26 02:34:00,59.0,54.0,29.74,SE,135,0.0,0.0,84,0.00,,,0.00,,2013-06-26 06:34:00,
2013-06-26 02:44:00,59.0,54.0,29.74,SE,135,0.0,0.0,84,0.00,,,0.00,,2013-06-26 06:44:00,
2013-06-26 02:53:00,59.0,54.0,29.73,SE,135,0.0,0.0,84,0.00,,,0.00,,2013-06-26 06:53:00,
2013-06-26 03:01:00,59.0,54.0,29.73,South,180,0.0,0.0,84,0.00,,,0.00,,2013-06-26 07:01:00,
2013-06-26 03:11:00,59.0,54.0,29.73,South,180,0.0,0.0,84,0.00,,,0.00,,2013-06-26 07:11:00,
2013-06-26 03:22:00,59.0,54.0,29.72,SSE,158,0.0,0.0,85,0.00,,,0.00,,2013-06-26 07:22:00,
2013-06-26 03:33:00,59.0,54.0,29.72,SSE,158,0.0,0.0,85,0.00,,,0.00,,2013-06-26 07:33:00,
2013-06-26 03:43:00,59.0,54.0,29.72,SSE,158,0.0,0.0,85,0.00,,,0.00,,2013-06-26 07:43:00,
2013-06-26 03:53:00,59.0,54.0,29.72,South,191,0.0,0.0,85,0.00,,,0.00,,2013-06-26 07:53:00,
2013-06-26 04:01:00,59.0,54.0,29.72,SW,219,0.0,0.0,85,0.00,,,0.00,,2013-06-26 08:01:00,
2013-06-26 04:11:00,59.0,54.0,29.72,SW,219,0.0,0.0,85,0.00,,,0.00,,2013-06-26 08:11:00,
2013-06-26 04:22:00,59.0,54.0,29.71,South,180,0.0,0.0,85,0.00,,,0.00,,2013-06-26 08:22:00,
2013-06-26 04:33:00,59.0,55.0,29.72,SSE,158,0.0,0.0,86,0.00,,,0.00,,2013-06-26 08:33:00,
2013-06-26 04:42:00,59.0,55.0,29.72,SSE,158,0.0,0.0,86,0.00,,,0.00,,2013-06-26 08:42:00,
2013-06-26 04:53:00,60.0,56.0,29.72,SE,128,0.0,0.0,87,0.00,,,0.00,,2013-06-26 08:53:00,
2013-06-26 05:01:00,60.0,56.0,29.71,ENE,68,0.0,0.0,87,0.00,,,0.00,,2013-06-26 09:01:00,
2013-06-26 05:11:00,60.0,56.0,29.71,ENE,68,0.0,0.0,87,0.00,,,0.00,,2013-06-26 09:11:00,
2013-06-26 05:22:00,60.0,56.0,29.72,SE,135,0.0,0.0,87,0.00,,,0.00,,2013-06-26 09:22:00,
2013-06-26 05:33:00,60.0,56.0,29.72,North,0,0.0,0.0,87,0.00,,,0.00,,2013-06-26 09:33:00,
2013-06-26 05:43:00,60.0,56.0,29.72,North,0,0.0,0.0,87,0.00,,,0.00,,2013-06-26 09:43:00,
2013-06-26 05:53:00,59.0,55.0,29.71,North,0,0.0,0.0,86,0.00,,,0.00,,2013-06-26 09:53:00,
2013-06-26 06:01:00,59.0,55.0,29.72,North,0,0.0,0.0,87,0.00,,,0.00,,2013-06-26 10:01:00,
2013-06-26 06:12:00,59.0,55.0,29.72,North,0,0.0,0.0,87,0.00,,,0.00,,2013-06-26 10:12:00,
2013-06-26 06:22:00,59.0,55.0,29.72,NNW,338,0.0,0.0,87,0.00,,,0.00,,2013-06-26 10:22:00,
2013-06-26 06:34:00,59.0,55.0,29.71,NE,52,0.0,0.0,87,0.00,,,0.00,,2013-06-26 10:34:00,
2013-06-26 06:43:00,59.0,55.0,29.71,NE,52,0.0,0.0,87,0.00,,,0.00,,2013-06-26 10:43:00,
2013-06-26 06:53:00,59.0,55.0,29.72,SE,124,0.0,0.0,87,0.00,,,0.00,,2013-06-26 10:53:00,
2013-06-26 07:02:00,59.0,55.0,29.72,SE,145,0.0,0.0,88,0.00,,,0.00,,2013-06-26 11:02:00,
2013-06-26 07:11:00,59.0,55.0,29.72,SE,145,0.0,0.0,88,0.00,,,0.00,,2013-06-26 11:11:00,
2013-06-26 07:22:00,60.0,56.0,29.72,SE,135,0.0,0.0,88,0.00,,,0.00,,2013-06-26 11:22:00,
2013-06-26 07:33:00,60.0,56.0,29.72,ESE,104,0.0,0.0,88,0.00,,,0.00,,2013-06-26 11:33:00,
2013-06-26 07:44:00,60.0,56.0,29.72,ESE,104,0.0,0.0,88,0.00,,,0.00,,2013-06-26 11:44:00,
2013-06-26 07:52:00,61.0,57.0,29.72,ENE,73,0.0,0.0,88,0.00,,,0.00,,2013-06-26 11:52:00,
2013-06-26 08:02:00,63.0,60.0,29.72,NE,55,0.0,0.0,89,0.00,,,0.00,,2013-06-26 12:02:00,
2013-06-26 08:12:00,63.0,60.0,29.72,NE,55,0.0,0.0,89,0.00,,,0.00,,2013-06-26 12:12:00,
2013-06-26 08:22:00,64.0,60.0,29.71,NE,42,0.0,0.0,88,0.00,,,0.00,,2013-06-26 12:22:00,
2013-06-26 08:33:00,64.0,60.0,29.71,NW,319,0.0,0.0,88,0.00,,,0.00,,2013-06-26 12:33:00,
2013-06-26 08:42:00,64.0,60.0,29.71,NW,319,0.0,0.0,88,0.00,,,0.00,,2013-06-26 12:42:00,
2013-06-26 08:52:00,67.0,63.0,29.72,NW,315,0.0,5.0,88,0.00,,,0.00,,2013-06-26 12:52:00,
2013-06-26 09:02:00,71.0,65.0,29.73,WSW,248,0.0,1.0,82,0.00,,,0.00,,2013-06-26 13:02:00,
2013-06-26 09:11:00,71.0,65.0,29.73,WSW,248,0.0,1.0,82,0.00,,,0.00,,2013-06-26 13:11:00,
2013-06-26 09:22:00,70.0,64.0,29.73,SE,135,0.0,39.0,81,0.00,,,0.00,,2013-06-26 13:22:00,
2013-06-26 09:34:00,71.0,65.0,29.73,ESE,112,0.0,0.0,81,0.00,,,0.00,,2013-06-26 13:34:00,
2013-06-26 09:42:00,71.0,65.0,29.73,ESE,112,0.0,0.0,81,0.00,,,0.00,,2013-06-26 13:42:00,
2013-06-26 09:53:00,72.0,66.0,29.74,North,0,0.0,0.0,81,0.00,,,0.00,,2013-06-26 13:53:00,
2013-06-26 10:02:00,73.0,66.0,29.72,NNW,338,1.0,1.0,80,0.00,,,0.00,,2013-06-26 14:02:00,
2013-06-26 10:12:00,73.0,66.0,29.72,NNW,338,1.0,1.0,80,0.00,,,0.00,,2013-06-26 14:12:00,
2013-06-26 10:24:00,74.0,66.0,29.72,NNW,338,0.0,1.0,77,0.00,,,0.00,,2013-06-26 14:24:00,
2013-06-26 10:42:00,76.0,67.0,29.72,SSE,158,5.0,7.0,75,0.00,,,0.00,,2013-06-26 14:42:00,
2013-06-26 11:11:00,78.0,68.0,29.70,SE,135,1.0,2.0,72,0.00,,,0.00,,2013-06-26 15:11:00,
2013-06-26 14:11:00,86.0,71.0,29.68,SSW,202,1.0,5.0,61,0.00,,,0.00,,2013-06-26 18:11:00,
2013-06-26 16:12:00,88.0,69.0,29.66,SE,136,3.0,6.0,53,0.00,,,0.00,,2013-06-26 20:12:00,
2013-06-26 17:11:00,86.0,68.0,29.65,East,92,2.0,18.0,55,0.00,,,0.00,,2013-06-26 21:11:00,
2013-06-26 17:33:00,86.0,68.0,29.64,West,271,1.0,2.0,56,0.00,,,0.00,,2013-06-26 21:33:00,
2013-06-26 17:52:00,86.0,68.0,29.65,WNW,292,1.0,2.0,56,0.00,,,0.00,,2013-06-26 21:52:00,
2013-06-26 18:01:00,86.0,69.0,29.65,West,270,1.0,18.0,58,0.00,,,0.00,,2013-06-26 22:01:00,
2013-06-26 18:11:00,86.0,69.0,29.65,West,270,1.0,18.0,58,0.00,,,0.00,,2013-06-26 22:11:00,
2013-06-26 18:22:00,85.0,69.0,29.64,SSE,158,1.0,18.0,58,0.00,,,0.00,,2013-06-26 22:22:00,
2013-06-26 18:34:00,85.0,69.0,29.66,SSE,150,1.0,5.0,59,0.00,,,0.00,,2013-06-26 22:34:00,
2013-06-26 18:52:00,84.0,70.0,29.67,NW,315,0.0,1.0,63,0.00,,,0.00,,2013-06-26 22:52:00,
2013-06-26 19:02:00,77.0,61.0,29.70,WNW,292,11.0,13.0,58,0.00,,,0.00,,2013-06-26 23:02:00,
2013-06-26 19:11:00,77.0,61.0,29.70,WNW,292,11.0,13.0,58,0.00,,,0.00,,2013-06-26 23:11:00,
2013-06-26 19:22:00,77.0,61.0,29.70,WNW,292,11.0,13.0,58,0.00,,,0.00,,2013-06-26 23:22:00,
2013-06-26 19:34:00,77.0,61.0,29.70,WNW,292,11.0,13.0,58,0.00,,,0.00,,2013-06-26 23:34:00,
2013-06-26 19:43:00,77.0,61.0,29.70,WNW,292,11.0,13.0,58,0.00,,,0.00,,2013-06-26 23:43:00,
2013-06-26 20:12:00,64.0,59.0,29.73,NW,315,0.0,3.0,83,0.00,,,0.00,,2013-06-27 00:12:00,
2013-06-26 20:22:00,64.0,59.0,29.74,NE,42,5.0,28.0,84,0.00,,,0.00,,2013-06-27 00:22:00,
2013-06-26 20:33:00,64.0,59.0,29.72,SE,125,0.0,28.0,84,0.00,,,0.00,,2013-06-27 00:33:00,
2013-06-26 20:42:00,64.0,59.0,29.72,SE,125,0.0,28.0,84,0.00,,,0.00,,2013-06-27 00:42:00,
2013-06-26 20:53:00,64.0,59.0,29.72,SE,125,0.0,28.0,84,0.00,,,0.00,,2013-06-27 00:53:00,
2013-06-26 21:01:00,64.0,59.0,29.72,SE,125,0.0,28.0,84,0.00,,,0.00,,2013-06-27 01:01:00,
2013-06-26 21:11:00,64.0,59.0,29.72,SE,125,0.0,28.0,84,0.00,,,0.00,,2013-06-27 01:11:00,
2013-06-26 21:22:00,63.0,58.0,29.74,ESE,112,0.0,1.0,84,0.00,,,0.00,,2013-06-27 01:22:00,
2013-06-26 21:32:00,63.0,58.0,29.74,ESE,112,0.0,1.0,84,0.00,,,0.00,,2013-06-27 01:32:00,
2013-06-26 21:43:00,63.0,58.0,29.74,ESE,112,0.0,1.0,84,0.00,,,0.00,,2013-06-27 01:43:00,
2013-06-26 21:53:00,62.0,58.0,29.72,SSE,152,1.0,5.0,86,0.00,,,0.00,,2013-06-27 01:53:00,
2013-06-26 22:01:00,62.0,58.0,29.72,SSE,152,1.0,5.0,86,0.00,,,0.00,,2013-06-27 02:01:00,
2013-06-26 22:11:00,62.0,58.0,29.72,SSE,152,1.0,5.0,86,0.00,,,0.00,,2013-06-27 02:11:00,
2013-06-26 22:22:00,62.0,58.0,29.72,SSE,152,1.0,5.0,86,0.00,,,0.00,,2013-06-27 02:22:00,
2013-06-26 22:32:00,62.0,58.0,29.72,East,95,9.0,54.0,87,0.00,,,0.00,,2013-06-27 02:32:00,
2013-06-26 22:42:00,62.0,58.0,29.72,East,95,9.0,54.0,87,0.00,,,0.00,,2013-06-27 02:42:00,
2013-06-26 22:52:00,62.0,58.0,29.72,SE,125,2.0,2.0,87,0.42,,,0.42,,2013-06-27 02:52:00,
2013-06-26 23:02:00,62.0,58.0,29.72,SE,125,2.0,2.0,87,0.42,,,0.42,,2013-06-27 03:02:00,
2013-06-26 23:11:00,62.0,58.0,29.73,ESE,105,0.0,0.0,87,0.42,,,0.42,,2013-06-27 03:11:00,
2013-06-26 23:21:00,62.0,58.0,29.73,ESE,105,0.0,0.0,87,0.42,,,0.42,,2013-06-27 03:21:00,
2013-06-26 23:32:00,62.0,58.0,29.73,ESE,105,0.0,0.0,87,0.42,,,0.42,,2013-06-27 03:32:00,
2013-06-26 23:42:00,62.0,58.0,29.73,ESE,105,0.0,0.0,87,0.42,,,0.42,,2013-06-27 03:42:00,
2013-06-26 23:52:00,62.0,58.0,29.73,ESE,105,0.0,0.0,87,0.42,,,0.42,,2013-06-27 03:52:00,